createdAt,value
2022-11-05T00:00:17.587Z,4.80
2022-11-05T00:03:03.138Z,5.57
2022-11-05T00:05:49.285Z,5.45
2022-11-05T00:08:35.614Z,5.05
2022-11-05T00:11:02.662Z,4.68
2022-11-05T00:13:48.413Z,5.07
2022-11-05T00:16:41.472Z,5.13
2022-11-05T00:19:10.052Z,4.72
2022-11-05T00:21:57.184Z,4.88
2022-11-05T00:24:43.655Z,4.10
2022-11-05T00:27:10.970Z,3.92
2022-11-05T00:29:38.361Z,4.72
2022-11-05T00:32:05.517Z,4.20
2022-11-05T00:34:32.812Z,4.13
2022-11-05T00:36:59.965Z,4.55
2022-11-05T00:39:28.755Z,4.00
2022-11-05T00:42:14.563Z,4.35
2022-11-05T00:45:00.404Z,4.28
2022-11-05T00:47:46.270Z,4.10
2022-11-05T00:50:13.931Z,4.03
2022-11-05T00:52:56.099Z,3.60
2022-11-05T00:55:30.826Z,3.63
2022-11-05T00:57:58.504Z,3.10
2022-11-05T01:00:26.544Z,3.38
2022-11-05T01:02:53.786Z,2.40
2022-11-05T01:05:20.964Z,3.63
2022-11-05T01:07:48.142Z,3.50
2022-11-05T01:10:15.583Z,3.72
2022-11-05T01:12:42.680Z,3.22
2022-11-05T01:15:10.174Z,3.33
2022-11-05T01:17:37.281Z,3.63
2022-11-05T01:20:04.726Z,3.33
2022-11-05T01:22:32.007Z,3.28
2022-11-05T01:24:59.443Z,3.60
2022-11-05T01:27:26.783Z,3.38
2022-11-05T01:29:54.191Z,3.30
2022-11-05T01:32:21.301Z,3.15
2022-11-05T01:34:48.570Z,3.53
2022-11-05T01:37:15.889Z,3.55
2022-11-05T01:39:43.275Z,3.63
2022-11-05T01:42:26.600Z,3.80
2022-11-05T01:44:56.963Z,3.78
2022-11-05T01:47:36.553Z,3.83
2022-11-05T01:50:10.652Z,3.97
2022-11-05T01:52:39.211Z,3.67
2022-11-05T01:55:07.101Z,4.18
2022-11-05T01:57:34.269Z,4.32
2022-11-05T02:00:02.439Z,3.97
2022-11-05T02:02:40.424Z,4.00
2022-11-05T02:05:10.653Z,3.55
2022-11-05T02:07:37.979Z,3.90
2022-11-05T02:10:07.650Z,3.70
2022-11-05T02:12:35.174Z,4.03
2022-11-05T02:15:02.414Z,3.83
2022-11-05T02:17:55.693Z,3.30
2022-11-05T02:20:39.827Z,3.63
2022-11-05T02:23:21.102Z,4.13
2022-11-05T02:26:07.142Z,4.43
2022-11-05T02:28:53.155Z,4.13
2022-11-05T02:31:40.505Z,4.05
2022-11-05T02:34:43.410Z,4.75
2022-11-05T02:37:26.301Z,3.50
2022-11-05T02:40:09.328Z,4.70
2022-11-05T02:45:11.186Z,3.63
2022-11-05T02:47:57.254Z,3.83
2022-11-05T02:50:27.770Z,3.60
2022-11-05T02:55:25.365Z,4.05
2022-11-05T02:57:52.649Z,4.22
2022-11-05T03:00:38.672Z,3.83
2022-11-05T03:03:07.771Z,4.18
2022-11-05T03:05:40.463Z,4.55
2022-11-05T03:08:13.009Z,4.65
2022-11-05T03:10:40.085Z,4.18
2022-11-05T03:13:18.020Z,3.25
2022-11-05T03:15:56.392Z,4.93
2022-11-05T03:18:48.831Z,4.60
2022-11-05T03:21:19.160Z,4.50
2022-11-05T03:23:50.493Z,4.38
2022-11-05T03:26:30.027Z,4.40
2022-11-05T03:29:00.085Z,2.60
2022-11-05T03:31:29.478Z,4.03
2022-11-05T03:33:57.257Z,3.45
2022-11-05T03:36:50.205Z,3.63
2022-11-05T03:39:23.195Z,3.13
2022-11-05T03:41:52.054Z,4.00
2022-11-05T03:44:39.425Z,3.63
2022-11-05T03:47:08.555Z,4.78
2022-11-05T03:49:38.907Z,3.78
2022-11-05T03:52:13.437Z,3.85
2022-11-05T03:54:40.680Z,5.07
2022-11-05T03:57:10.501Z,3.45
2022-11-05T03:59:42.620Z,3.08
2022-11-05T04:02:11.048Z,4.53
2022-11-05T04:04:38.453Z,4.28
2022-11-05T04:07:24.148Z,3.42
2022-11-05T04:10:09.818Z,3.45
2022-11-05T04:12:55.573Z,4.63
2022-11-05T04:15:22.829Z,4.97
2022-11-05T04:17:50.312Z,4.78
2022-11-05T04:20:36.242Z,4.55
2022-11-05T04:23:23.958Z,4.88
2022-11-05T04:25:51.340Z,3.95
2022-11-05T04:28:18.873Z,4.72
2022-11-05T04:30:46.154Z,4.00
2022-11-05T04:33:15.421Z,4.28
2022-11-05T04:35:51.798Z,2.25
2022-11-05T04:38:20.378Z,4.03
2022-11-05T04:40:48.335Z,4.03
2022-11-05T04:43:17.419Z,4.75
2022-11-05T04:45:45.149Z,4.38
2022-11-05T04:48:12.926Z,4.22
2022-11-05T04:50:40.089Z,4.80
2022-11-05T04:53:07.424Z,4.72
2022-11-05T04:55:34.733Z,4.53
2022-11-05T04:58:01.865Z,5.35
2022-11-05T05:00:31.609Z,4.38
2022-11-05T05:02:58.934Z,5.07
2022-11-05T05:05:26.287Z,2.25
2022-11-05T05:07:53.523Z,3.85
2022-11-05T05:10:20.813Z,4.80
2022-11-05T05:12:48.454Z,4.13
2022-11-05T05:15:15.651Z,2.85
2022-11-05T05:17:43.378Z,3.20
2022-11-05T05:20:29.061Z,3.83
2022-11-05T05:22:56.333Z,4.63
2022-11-05T05:25:23.723Z,5.05
2022-11-05T05:27:50.821Z,4.82
2022-11-05T05:30:18.056Z,5.20
2022-11-05T05:32:46.503Z,5.18
2022-11-05T05:35:22.625Z,4.68
2022-11-05T05:37:50.072Z,4.80
2022-11-05T05:40:17.286Z,6.07
2022-11-05T05:42:44.434Z,4.32
2022-11-05T05:45:12.728Z,3.80
2022-11-05T05:47:39.918Z,5.22
2022-11-05T05:50:07.162Z,3.13
2022-11-05T05:52:34.220Z,4.32
2022-11-05T05:55:01.352Z,2.75
2022-11-05T05:57:28.580Z,3.25
2022-11-05T05:59:55.665Z,3.83
2022-11-05T06:02:23.135Z,4.40
2022-11-05T06:04:50.422Z,2.35
2022-11-05T06:07:17.694Z,4.10
2022-11-05T06:09:45.028Z,3.67
2022-11-05T06:12:12.487Z,3.83
2022-11-05T06:14:39.617Z,4.00
2022-11-05T06:17:09.796Z,4.10
2022-11-05T06:19:36.988Z,4.50
2022-11-05T06:22:04.279Z,4.80
2022-11-05T06:24:31.430Z,5.07
2022-11-05T06:26:58.720Z,5.28
2022-11-05T06:29:25.869Z,4.50
2022-11-05T06:31:53.151Z,4.47
2022-11-05T06:34:20.473Z,4.15
2022-11-05T06:36:47.625Z,4.80
2022-11-05T06:39:14.839Z,4.75
2022-11-05T06:42:17.296Z,4.05
2022-11-05T06:44:32.143Z,5.00
2022-11-05T06:47:00.220Z,5.63
2022-11-05T06:49:29.780Z,4.32
2022-11-05T06:51:58.343Z,5.57
2022-11-05T06:54:25.693Z,6.20
2022-11-05T06:56:52.864Z,5.72
2022-11-05T06:59:19.973Z,5.15
2022-11-05T07:01:51.115Z,4.97
2022-11-05T07:04:18.255Z,5.05
2022-11-05T07:06:45.365Z,6.25
2022-11-05T07:09:12.733Z,6.07
2022-11-05T07:11:39.922Z,6.40
2022-11-05T07:14:07.014Z,4.90
2022-11-05T07:16:34.159Z,6.25
2022-11-05T07:19:01.412Z,5.18
2022-11-05T07:21:29.456Z,5.32
2022-11-05T07:23:56.723Z,4.78
2022-11-05T07:26:24.130Z,5.80
2022-11-05T07:28:51.313Z,4.05
2022-11-05T07:31:18.531Z,5.05
2022-11-05T07:33:45.967Z,6.57
2022-11-05T07:36:14.919Z,7.03
2022-11-05T07:38:42.260Z,3.95
2022-11-05T07:41:09.362Z,4.82
2022-11-05T07:43:36.480Z,5.55
2022-11-05T07:46:03.650Z,5.55
2022-11-05T07:48:32.202Z,7.03
2022-11-05T07:50:59.579Z,5.95
2022-11-05T07:53:26.794Z,7.30
2022-11-05T07:56:01.739Z,5.50
2022-11-05T07:58:29.013Z,7.57
2022-11-05T08:00:57.646Z,4.75
2022-11-05T08:03:25.122Z,7.88
2022-11-05T08:05:52.364Z,8.50
2022-11-05T08:08:20.173Z,6.88
2022-11-05T08:10:47.598Z,7.68
2022-11-05T08:13:15.715Z,6.70
2022-11-05T08:15:43.870Z,7.18
2022-11-05T08:18:15.553Z,4.93
2022-11-05T08:20:43.406Z,5.63
2022-11-05T08:23:14.584Z,3.95
2022-11-05T08:25:42.362Z,3.72
2022-11-05T08:28:11.910Z,5.90
2022-11-05T08:30:39.021Z,6.15
2022-11-05T08:33:08.356Z,5.70
2022-11-05T08:35:36.556Z,6.20
2022-11-05T08:38:05.046Z,6.15
2022-11-05T08:40:33.043Z,5.38
2022-11-05T08:43:02.550Z,5.50
2022-11-05T08:45:29.889Z,5.22
2022-11-05T08:48:17.776Z,6.68
2022-11-05T08:50:46.154Z,3.17
2022-11-05T08:53:14.524Z,6.55
2022-11-05T08:55:44.633Z,6.20
2022-11-05T08:58:12.887Z,6.00
2022-11-05T09:00:41.581Z,6.22
2022-11-05T09:03:10.139Z,4.65
2022-11-05T09:05:39.422Z,6.85
2022-11-05T09:08:07.530Z,6.18
2022-11-05T09:10:37.516Z,6.80
2022-11-05T09:13:04.998Z,5.50
2022-11-05T09:15:33.335Z,6.03
2022-11-05T09:18:00.804Z,6.65
2022-11-05T09:20:27.932Z,6.90
2022-11-05T09:22:55.364Z,6.00
2022-11-05T09:25:22.534Z,6.85
2022-11-05T09:27:49.761Z,6.28
2022-11-05T09:30:18.451Z,5.57
2022-11-05T09:32:49.388Z,4.00
2022-11-05T09:35:16.528Z,5.90
2022-11-05T09:37:46.143Z,3.60
2022-11-05T09:40:17.138Z,5.95
2022-11-05T09:42:52.286Z,4.75
2022-11-05T09:45:20.761Z,5.80
2022-11-05T09:47:59.410Z,5.63
2022-11-05T09:50:31.840Z,5.05
2022-11-05T09:52:59.179Z,4.25
2022-11-05T09:55:38.208Z,5.47
2022-11-05T09:58:11.511Z,5.28
2022-11-05T10:00:38.930Z,4.63
2022-11-05T10:03:08.518Z,4.82
2022-11-05T10:05:37.758Z,4.60
2022-11-05T10:08:23.126Z,3.55
2022-11-05T10:10:52.093Z,3.38
2022-11-05T10:13:28.752Z,4.65
2022-11-05T10:16:02.368Z,6.13
2022-11-05T10:18:33.408Z,5.93
2022-11-05T10:21:00.712Z,7.03
2022-11-05T10:23:28.642Z,5.78
2022-11-05T10:26:01.586Z,4.70
2022-11-05T10:28:30.176Z,4.95
2022-11-05T10:31:03.030Z,3.55
2022-11-05T10:33:32.833Z,3.38
2022-11-05T10:36:08.066Z,4.20
2022-11-05T10:38:35.241Z,4.18
2022-11-05T10:41:20.733Z,4.35
2022-11-05T10:43:52.455Z,3.17
2022-11-05T10:46:28.353Z,3.75
2022-11-05T10:49:07.883Z,3.75
2022-11-05T10:51:35.117Z,4.70
2022-11-05T10:54:04.769Z,4.53
2022-11-05T10:56:37.399Z,4.57
2022-11-05T10:59:10.941Z,3.50
2022-11-05T11:01:39.489Z,4.53
2022-11-05T11:04:16.209Z,3.65
2022-11-05T11:06:47.506Z,3.08
2022-11-05T11:09:44.577Z,4.40
2022-11-05T11:12:16.206Z,3.60
2022-11-05T11:14:48.704Z,3.15
2022-11-05T11:17:26.804Z,3.78
2022-11-05T11:20:12.811Z,4.22
2022-11-05T11:22:40.115Z,2.78
2022-11-05T11:25:50.339Z,4.18
2022-11-05T11:28:20.729Z,3.58
2022-11-05T11:30:49.263Z,4.13
2022-11-05T11:33:19.162Z,3.70
2022-11-05T11:35:46.822Z,3.85
2022-11-05T11:38:15.794Z,4.93
2022-11-05T11:40:43.432Z,4.05
2022-11-05T11:43:18.670Z,3.22
2022-11-05T11:45:45.799Z,3.55
2022-11-05T11:48:22.205Z,3.83
2022-11-05T11:53:22.610Z,4.03
2022-11-05T11:55:56.437Z,1.98
2022-11-05T11:58:25.598Z,3.45
2022-11-05T12:01:07.756Z,3.20
2022-11-05T12:03:34.888Z,3.63
2022-11-05T12:06:02.068Z,2.78
2022-11-05T12:08:54.184Z,3.53
2022-11-05T12:11:48.469Z,3.47
2022-11-05T12:14:28.435Z,5.50
2022-11-05T12:17:04.969Z,3.80
2022-11-05T12:19:52.635Z,3.22
2022-11-05T12:22:39.185Z,4.50
2022-11-05T12:25:20.442Z,3.58
2022-11-05T12:28:08.122Z,3.15
2022-11-05T12:30:41.004Z,3.55
2022-11-05T12:33:08.249Z,3.03
2022-11-05T12:36:13.237Z,3.00
2022-11-05T12:38:59.971Z,2.97
2022-11-05T12:41:53.306Z,2.63
2022-11-05T12:44:35.913Z,2.35
2022-11-05T12:49:55.133Z,2.40
2022-11-05T12:52:30.871Z,2.78
2022-11-05T12:55:07.168Z,2.08
2022-11-05T12:57:40.032Z,2.08
2022-11-05T13:00:07.634Z,2.67
2022-11-05T13:02:59.870Z,1.67
2022-11-05T13:05:26.972Z,2.15
2022-11-05T13:08:05.381Z,2.38
2022-11-05T13:10:45.720Z,2.03
2022-11-05T13:13:15.782Z,2.10
2022-11-05T13:16:06.709Z,3.00
2022-11-05T13:18:41.073Z,2.70
2022-11-05T13:21:10.071Z,2.63
2022-11-05T13:24:06.640Z,2.92
2022-11-05T13:26:42.556Z,2.15
2022-11-05T13:29:15.151Z,2.95
2022-11-05T13:31:46.221Z,1.95
2022-11-05T13:34:14.155Z,2.55
2022-11-05T13:37:17.535Z,3.00
2022-11-05T13:39:50.127Z,2.70
2022-11-05T13:42:43.842Z,2.30
2022-11-05T13:45:19.521Z,3.22
2022-11-05T13:48:00.025Z,3.10
2022-11-05T13:50:46.197Z,2.75
2022-11-05T13:53:22.004Z,3.80
2022-11-05T13:56:26.653Z,3.33
2022-11-05T13:59:15.322Z,3.10
2022-11-05T14:01:56.759Z,3.35
2022-11-05T14:04:35.893Z,2.20
2022-11-05T14:07:08.509Z,2.50
2022-11-05T14:09:37.078Z,2.67
2022-11-05T14:12:05.291Z,3.30
2022-11-05T14:14:37.451Z,3.33
2022-11-05T14:17:07.777Z,3.70
2022-11-05T14:22:30.922Z,2.78
2022-11-05T14:24:58.462Z,2.97
2022-11-05T14:27:37.319Z,3.42
2022-11-05T14:30:41.686Z,4.25
2022-11-05T14:33:26.990Z,3.78
2022-11-05T14:36:19.680Z,3.85
2022-11-05T14:38:52.302Z,3.45
2022-11-05T14:41:20.725Z,3.80
2022-11-05T14:43:54.084Z,4.03
2022-11-05T14:46:21.343Z,3.95
2022-11-05T14:48:52.240Z,3.17
2022-11-05T14:51:41.157Z,3.10
2022-11-05T14:54:21.083Z,3.38
2022-11-05T14:56:56.352Z,4.15
2022-11-05T14:59:28.218Z,4.03
2022-11-05T15:02:02.544Z,3.83
2022-11-05T15:04:35.894Z,2.92
2022-11-05T15:07:06.566Z,3.75
2022-11-05T15:20:49.971Z,2.85
2022-11-05T15:23:20.030Z,2.78
2022-11-05T15:26:02.809Z,3.40
2022-11-05T15:28:41.484Z,3.55
2022-11-05T15:31:14.823Z,3.30
2022-11-05T15:33:42.687Z,3.05
2022-11-05T15:36:30.146Z,3.22
2022-11-05T15:39:27.497Z,3.30
2022-11-05T15:41:45.325Z,2.88
2022-11-05T15:44:31.485Z,3.15
2022-11-05T15:47:09.484Z,3.40
2022-11-05T15:49:37.453Z,2.30
2022-11-05T15:52:06.140Z,3.33
2022-11-05T15:54:33.864Z,3.22
2022-11-05T15:57:01.413Z,2.80
2022-11-05T15:59:30.155Z,4.10
2022-11-05T16:01:57.752Z,4.00
2022-11-05T16:04:29.404Z,3.45
2022-11-05T16:07:01.854Z,3.00
2022-11-05T16:09:54.352Z,3.88
2022-11-05T16:12:22.026Z,3.17
2022-11-05T16:15:07.969Z,3.25
2022-11-05T16:17:38.265Z,3.00
2022-11-05T16:22:45.167Z,3.97
2022-11-05T16:25:47.414Z,4.13
2022-11-05T16:28:22.436Z,3.33
2022-11-05T16:30:59.783Z,3.85
2022-11-05T16:33:28.122Z,4.72
2022-11-05T16:35:55.541Z,5.32
2022-11-05T16:38:22.766Z,5.13
2022-11-05T16:40:50.098Z,3.97
2022-11-05T16:43:22.112Z,5.38
2022-11-05T16:45:49.397Z,5.53
2022-11-05T16:48:17.167Z,3.83
2022-11-05T16:50:44.933Z,3.75
2022-11-05T16:53:12.481Z,4.30
2022-11-05T16:55:42.931Z,4.80
2022-11-05T16:58:18.173Z,4.53
2022-11-05T17:00:45.600Z,4.03
2022-11-05T17:03:12.846Z,3.65
2022-11-05T17:05:39.996Z,4.93
2022-11-05T17:08:07.201Z,3.85
2022-11-05T17:10:34.513Z,4.60
2022-11-05T17:13:01.706Z,3.13
2022-11-05T17:15:35.773Z,4.05
2022-11-05T17:18:04.304Z,5.03
2022-11-05T17:20:39.926Z,3.42
2022-11-05T17:23:09.766Z,3.95
2022-11-05T17:25:37.328Z,2.95
2022-11-05T17:28:04.599Z,4.60
2022-11-05T17:30:31.910Z,3.90
2022-11-05T17:32:59.464Z,2.85
2022-11-05T17:35:26.945Z,3.38
2022-11-05T17:37:56.441Z,4.22
2022-11-05T17:40:24.041Z,4.25
2022-11-05T17:42:51.868Z,4.47
2022-11-05T17:45:19.181Z,4.68
2022-11-05T17:47:46.316Z,4.85
2022-11-05T17:50:14.224Z,4.15
2022-11-05T17:52:41.556Z,3.15
2022-11-05T17:55:16.764Z,4.65
2022-11-05T17:57:47.831Z,4.78
2022-11-05T18:00:17.468Z,4.40
2022-11-05T18:02:46.063Z,3.47
2022-11-05T18:05:13.715Z,5.13
2022-11-05T18:07:41.426Z,5.47
2022-11-05T18:10:09.037Z,4.70
2022-11-05T18:12:36.742Z,4.82
2022-11-05T18:15:04.415Z,3.88
2022-11-05T18:17:39.002Z,4.78
2022-11-05T18:20:18.617Z,4.35
2022-11-05T18:22:47.167Z,5.68
2022-11-05T18:25:14.308Z,5.57
2022-11-05T18:27:41.825Z,5.90
2022-11-05T18:30:09.786Z,6.03
2022-11-05T18:32:43.589Z,7.68
2022-11-05T18:35:11.014Z,5.28
2022-11-05T18:37:38.997Z,4.93
2022-11-05T18:40:07.104Z,5.10
2022-11-05T18:42:34.240Z,3.40
2022-11-05T18:45:01.341Z,5.30
2022-11-05T18:47:28.859Z,5.63
2022-11-05T18:49:56.007Z,4.50
2022-11-05T18:52:23.192Z,6.20
2022-11-05T18:54:50.671Z,4.68
2022-11-05T18:57:17.955Z,5.00
2022-11-05T18:59:46.708Z,4.63
2022-11-05T19:02:24.758Z,4.68
2022-11-05T19:05:26.678Z,4.43
2022-11-05T19:07:42.183Z,5.13
2022-11-05T19:10:09.668Z,5.65
2022-11-05T19:12:37.203Z,5.88
2022-11-05T19:15:04.804Z,5.10
2022-11-05T19:17:33.276Z,3.50
2022-11-05T19:20:02.097Z,5.53
2022-11-05T19:22:29.484Z,4.63
2022-11-05T19:24:57.154Z,5.03
2022-11-05T19:27:24.398Z,3.58
2022-11-05T19:29:51.748Z,4.60
2022-11-05T19:32:18.918Z,3.67
2022-11-05T19:34:47.114Z,3.83
2022-11-05T19:37:14.735Z,4.45
2022-11-05T19:39:44.089Z,4.32
2022-11-05T19:45:43.573Z,3.13
2022-11-05T19:48:11.457Z,3.00
2022-11-05T19:50:43.134Z,3.70
2022-11-05T19:53:11.275Z,4.88
2022-11-05T19:55:44.903Z,3.72
2022-11-05T19:58:12.542Z,4.53
2022-11-05T20:00:39.857Z,4.07
2022-11-05T20:03:08.589Z,4.80
2022-11-05T20:08:19.886Z,3.30
2022-11-05T20:10:48.082Z,4.80
2022-11-05T20:13:19.930Z,3.67
2022-11-05T20:15:47.417Z,4.10
2022-11-05T20:18:18.271Z,4.72
2022-11-05T20:20:45.820Z,5.75
2022-11-05T20:23:16.346Z,4.97
2022-11-05T20:25:43.833Z,4.45
2022-11-05T20:28:15.285Z,4.90
2022-11-05T20:30:42.552Z,4.00
2022-11-05T20:33:09.829Z,5.00
2022-11-05T20:35:46.115Z,4.05
2022-11-05T20:38:13.651Z,4.60
2022-11-05T20:40:41.873Z,4.68
2022-11-05T20:43:38.320Z,4.65
2022-11-05T20:46:12.310Z,3.78
2022-11-05T20:48:40.555Z,4.60
2022-11-05T20:51:09.360Z,4.35
2022-11-05T20:53:37.033Z,4.45
2022-11-05T20:56:07.834Z,5.00
2022-11-05T20:58:35.822Z,5.57
2022-11-05T21:01:03.566Z,4.78
2022-11-05T21:03:30.735Z,5.50
2022-11-05T21:06:00.967Z,5.03
2022-11-05T21:08:30.140Z,3.38
2022-11-05T21:10:57.585Z,5.72
2022-11-05T21:13:25.414Z,4.53
2022-11-05T21:15:53.717Z,4.60
2022-11-05T21:18:21.984Z,5.40
2022-11-05T21:20:51.465Z,4.75
2022-11-05T21:23:18.995Z,4.20
2022-11-05T21:25:46.249Z,4.70
2022-11-05T21:28:14.795Z,3.50
2022-11-05T21:30:45.815Z,4.90
2022-11-05T21:33:14.147Z,4.10
2022-11-05T21:35:43.898Z,5.30
2022-11-05T21:38:19.228Z,5.32
2022-11-05T21:40:46.623Z,4.32
2022-11-05T21:43:16.831Z,5.13
2022-11-05T21:45:45.364Z,4.03
2022-11-05T21:48:15.458Z,4.88
2022-11-05T21:51:01.394Z,3.78
2022-11-05T21:53:47.259Z,5.20
2022-11-05T21:56:37.232Z,4.22
2022-11-05T21:59:23.693Z,5.30
2022-11-05T22:01:51.551Z,3.92
2022-11-05T22:04:18.732Z,3.67
2022-11-05T22:06:45.817Z,4.63
2022-11-05T22:09:13.082Z,4.60
2022-11-05T22:11:40.336Z,3.55
2022-11-05T22:14:10.275Z,3.47
2022-11-05T22:16:37.478Z,4.03
2022-11-05T22:19:04.600Z,5.35
2022-11-05T22:21:31.975Z,4.80
2022-11-05T22:24:05.834Z,4.80
2022-11-05T22:26:33.433Z,4.78
2022-11-05T22:29:00.776Z,3.17
2022-11-05T22:31:35.971Z,4.70
2022-11-05T22:34:04.317Z,4.45
2022-11-05T22:36:31.407Z,5.03
2022-11-05T22:38:58.688Z,4.75
2022-11-05T22:41:26.854Z,3.45
2022-11-05T22:43:54.184Z,4.53
2022-11-05T22:46:22.567Z,5.00
2022-11-05T22:48:50.229Z,4.07
2022-11-05T22:51:21.789Z,4.55
2022-11-05T22:53:49.422Z,4.38
2022-11-05T22:56:18.922Z,4.20
2022-11-05T22:58:46.109Z,4.05
2022-11-05T23:01:14.017Z,4.20
2022-11-05T23:03:42.279Z,4.40
2022-11-05T23:06:32.107Z,4.55
2022-11-05T23:09:18.865Z,3.50
2022-11-05T23:11:48.400Z,3.92
2022-11-05T23:14:15.558Z,4.13
2022-11-05T23:17:02.014Z,4.47
2022-11-05T23:19:48.152Z,3.85
2022-11-05T23:22:44.414Z,4.18
2022-11-05T23:25:12.884Z,4.00
2022-11-05T23:27:53.028Z,3.60
2022-11-05T23:30:59.510Z,3.55
2022-11-05T23:33:26.907Z,3.08
2022-11-05T23:36:12.996Z,3.40
2022-11-05T23:38:40.749Z,3.47
2022-11-05T23:41:26.353Z,4.57
2022-11-05T23:44:19.753Z,3.72
2022-11-05T23:47:05.845Z,3.78
2022-11-05T23:49:33.298Z,3.97
2022-11-05T23:52:00.423Z,4.28
2022-11-05T23:54:27.706Z,3.58
2022-11-05T23:56:55.086Z,3.28
2022-11-05T23:59:22.381Z,3.13
